Buies Creek, NC

2:03 PM EDT on June 02, 2015 (GMT -0400)
40 bee farm road erwin nc | | Change Station
CLOSE
Current Station
Personal Weather Station
Location: Erwin, NC
Elevation: 125 ft
Nearby Weather Stations

Elev 125 ft 35.33 °N, 78.69 °W | Updated 12 minutes ago

Scattered Clouds
Scattered Clouds
78.3 °F
Feels Like 81 °F
N
1.6
Wind Variable Wind from NNE

Today
High -- | Low -- °F
--% Chance of Precip.
Yesterday
High -- | Low -- °F
Precip. -- in
6:00 AM 8:25 PM
Full, 100% visible
Pressure 30.01 in
Visibility 10.0 miles
Clouds Scattered Clouds 1600 ft
Heat Index 81 °F
Dew Point 72 °F
Humidity 80%
Rainfall 0.63 in
Snow Depth Not available.
UV 9 out of 12
Pollen 4.40 out of 12
Air Quality Not available.
Flu Activity No Activity
METAR KHRJ 021755Z AUTO 22004KT 10SM SCT016 25/19 A3001 RMK AO2 6//// T02480193

More Conditions Fewer Conditions

Pressure 30.01 in
Visibility 10.0 miles
Clouds Scattered Clouds 1600 ft
Heat Index 81 °F
Dew Point 72 °F
Humidity 80%
Rainfall 0.63 in
Snow Depth Not available.
UV 9 out of 12
Pollen 4.40 out of 12
Air Quality Not available.
Flu Activity No Activity
METAR KHRJ 021755Z AUTO 22004KT 10SM SCT016 25/19 A3001 RMK AO2 6//// T02480193

More Conditions Fewer Conditions

10-Day Weather Forecast

×

Almanac

Astronomy

Jun. 02, 2015 Rise Set
Actual Time
Civil Twilight
Nautical Twilight
Astronomical Twilight
Moon
Length of Visible Light
Length of Day
Tomorrow will be .
, % of the Moon is Illuminated

Today's Extremes

State Highs State Lows

Community

WunderPhotos

Upload Photos

1,825,991 photos uploaded!

WunderBlogs® & News

Nearby

Air Quality

  Air Quality AQ Index Pollutant
Not available.

Snow Depth

Station Depth Elevation

Earthquake Activity

City Distance Mag. Time & Date
Minimum magnitude displayed is 2.5.

Coastal Water Temperatures

Place Temperature

Stations

Nearby Weather Stations

Station Location Temp. Windchill Dew Point Humidity Wind Precip. Elev Updated Type